sensor_id;sensor_type;location;lat;lon;timestamp;P1;durP1;ratioP1;P2;durP2;ratioP2
34639;SDS011;22600;48.186;11.526;2022-10-28T00:01:33;5.70;;;2.72;;
34639;SDS011;22600;48.186;11.526;2022-10-28T00:03:56;5.18;;;2.63;;
34639;SDS011;22600;48.186;11.526;2022-10-28T00:06:26;6.40;;;2.85;;
34639;SDS011;22600;48.186;11.526;2022-10-28T00:08:57;4.30;;;2.80;;
34639;SDS011;22600;48.186;11.526;2022-10-28T00:11:24;4.78;;;2.78;;
34639;SDS011;22600;48.186;11.526;2022-10-28T00:13:52;5.20;;;2.80;;
34639;SDS011;22600;48.186;11.526;2022-10-28T00:16:20;5.53;;;2.63;;
34639;SDS011;22600;48.186;11.526;2022-10-28T00:18:50;4.20;;;2.60;;
34639;SDS011;22600;48.186;11.526;2022-10-28T00:21:19;4.28;;;2.75;;
34639;SDS011;22600;48.186;11.526;2022-10-28T00:23:49;6.68;;;2.78;;
34639;SDS011;22600;48.186;11.526;2022-10-28T00:26:16;7.60;;;2.47;;
34639;SDS011;22600;48.186;11.526;2022-10-28T00:28:50;4.40;;;2.50;;
34639;SDS011;22600;48.186;11.526;2022-10-28T00:31:17;4.38;;;2.47;;
34639;SDS011;22600;48.186;11.526;2022-10-28T00:33:45;5.53;;;2.50;;
34639;SDS011;22600;48.186;11.526;2022-10-28T00:38:38;6.18;;;2.63;;
34639;SDS011;22600;48.186;11.526;2022-10-28T00:41:05;4.10;;;2.40;;
34639;SDS011;22600;48.186;11.526;2022-10-28T00:43:35;4.93;;;2.70;;
34639;SDS011;22600;48.186;11.526;2022-10-28T00:46:09;4.95;;;2.60;;
34639;SDS011;22600;48.186;11.526;2022-10-28T00:48:37;4.80;;;2.70;;
34639;SDS011;22600;48.186;11.526;2022-10-28T00:51:05;4.97;;;2.50;;
34639;SDS011;22600;48.186;11.526;2022-10-28T00:53:32;3.80;;;2.28;;
34639;SDS011;22600;48.186;11.526;2022-10-28T00:55:59;3.63;;;2.22;;
34639;SDS011;22600;48.186;11.526;2022-10-28T00:58:27;4.50;;;2.42;;
34639;SDS011;22600;48.186;11.526;2022-10-28T01:00:53;4.18;;;2.60;;
34639;SDS011;22600;48.186;11.526;2022-10-28T01:03:19;5.78;;;2.70;;
34639;SDS011;22600;48.186;11.526;2022-10-28T01:05:46;5.03;;;2.50;;
34639;SDS011;22600;48.186;11.526;2022-10-28T01:08:13;5.28;;;2.70;;
34639;SDS011;22600;48.186;11.526;2022-10-28T01:13:14;5.35;;;2.70;;
34639;SDS011;22600;48.186;11.526;2022-10-28T01:15:45;5.05;;;2.20;;
34639;SDS011;22600;48.186;11.526;2022-10-28T01:18:28;4.00;;;2.60;;
34639;SDS011;22600;48.186;11.526;2022-10-28T01:21:15;4.65;;;2.40;;
34639;SDS011;22600;48.186;11.526;2022-10-28T01:29:07;5.63;;;2.47;;
34639;SDS011;22600;48.186;11.526;2022-10-28T01:31:58;5.22;;;2.40;;
34639;SDS011;22600;48.186;11.526;2022-10-28T01:42:33;4.22;;;2.22;;
34639;SDS011;22600;48.186;11.526;2022-10-28T01:51:10;3.53;;;2.20;;
34639;SDS011;22600;48.186;11.526;2022-10-28T01:53:22;4.88;;;2.53;;
34639;SDS011;22600;48.186;11.526;2022-10-28T01:55:52;4.07;;;2.28;;
34639;SDS011;22600;48.186;11.526;2022-10-28T01:58:22;3.13;;;2.30;;
34639;SDS011;22600;48.186;11.526;2022-10-28T02:00:52;3.28;;;1.95;;
34639;SDS011;22600;48.186;11.526;2022-10-28T02:03:19;4.22;;;2.10;;
34639;SDS011;22600;48.186;11.526;2022-10-28T02:05:46;3.50;;;2.40;;
34639;SDS011;22600;48.186;11.526;2022-10-28T02:13:13;5.05;;;2.10;;
34639;SDS011;22600;48.186;11.526;2022-10-28T02:15:45;3.42;;;2.25;;
34639;SDS011;22600;48.186;11.526;2022-10-28T02:21:14;2.80;;;2.08;;
34639;SDS011;22600;48.186;11.526;2022-10-28T02:23:59;2.75;;;2.05;;
34639;SDS011;22600;48.186;11.526;2022-10-28T02:26:51;3.80;;;2.47;;
34639;SDS011;22600;48.186;11.526;2022-10-28T02:29:28;2.90;;;2.20;;
34639;SDS011;22600;48.186;11.526;2022-10-28T02:32:12;3.63;;;2.10;;
34639;SDS011;22600;48.186;11.526;2022-10-28T02:34:42;4.40;;;2.25;;
34639;SDS011;22600;48.186;11.526;2022-10-28T02:37:16;5.55;;;2.15;;
34639;SDS011;22600;48.186;11.526;2022-10-28T02:39:51;3.97;;;2.42;;
34639;SDS011;22600;48.186;11.526;2022-10-28T02:42:21;3.78;;;2.40;;
34639;SDS011;22600;48.186;11.526;2022-10-28T02:44:58;5.13;;;2.10;;
34639;SDS011;22600;48.186;11.526;2022-10-28T02:47:32;3.47;;;2.20;;
34639;SDS011;22600;48.186;11.526;2022-10-28T02:50:03;4.57;;;2.35;;
34639;SDS011;22600;48.186;11.526;2022-10-28T02:52:32;3.53;;;2.20;;
34639;SDS011;22600;48.186;11.526;2022-10-28T02:54:59;4.93;;;2.40;;
34639;SDS011;22600;48.186;11.526;2022-10-28T02:57:31;4.38;;;2.60;;
34639;SDS011;22600;48.186;11.526;2022-10-28T03:00:00;6.20;;;2.28;;
34639;SDS011;22600;48.186;11.526;2022-10-28T03:02:30;3.08;;;2.40;;
34639;SDS011;22600;48.186;11.526;2022-10-28T03:04:56;4.43;;;2.65;;
34639;SDS011;22600;48.186;11.526;2022-10-28T03:07:21;2.88;;;2.28;;
34639;SDS011;22600;48.186;11.526;2022-10-28T03:09:47;4.70;;;2.58;;
34639;SDS011;22600;48.186;11.526;2022-10-28T03:12:13;5.30;;;2.10;;
34639;SDS011;22600;48.186;11.526;2022-10-28T03:14:39;3.42;;;2.10;;
34639;SDS011;22600;48.186;11.526;2022-10-28T03:17:04;5.05;;;2.55;;
34639;SDS011;22600;48.186;11.526;2022-10-28T03:19:31;4.55;;;2.35;;
34639;SDS011;22600;48.186;11.526;2022-10-28T03:21:57;3.95;;;2.20;;
34639;SDS011;22600;48.186;11.526;2022-10-28T03:24:22;3.63;;;2.03;;
34639;SDS011;22600;48.186;11.526;2022-10-28T03:26:48;3.50;;;2.10;;
34639;SDS011;22600;48.186;11.526;2022-10-28T03:29:13;2.95;;;2.08;;
34639;SDS011;22600;48.186;11.526;2022-10-28T03:31:39;3.35;;;2.40;;
34639;SDS011;22600;48.186;11.526;2022-10-28T03:34:04;3.55;;;2.33;;
34639;SDS011;22600;48.186;11.526;2022-10-28T03:36:30;4.05;;;2.03;;
34639;SDS011;22600;48.186;11.526;2022-10-28T03:38:55;3.40;;;2.20;;
34639;SDS011;22600;48.186;11.526;2022-10-28T03:41:21;4.00;;;2.25;;
34639;SDS011;22600;48.186;11.526;2022-10-28T03:43:46;4.25;;;2.03;;
34639;SDS011;22600;48.186;11.526;2022-10-28T03:46:12;7.60;;;2.65;;
34639;SDS011;22600;48.186;11.526;2022-10-28T03:48:38;2.63;;;2.08;;
34639;SDS011;22600;48.186;11.526;2022-10-28T03:51:03;3.97;;;2.10;;
34639;SDS011;22600;48.186;11.526;2022-10-28T03:53:30;4.35;;;2.00;;
34639;SDS011;22600;48.186;11.526;2022-10-28T03:55:56;2.47;;;1.90;;
34639;SDS011;22600;48.186;11.526;2022-10-28T03:58:23;4.35;;;2.00;;
34639;SDS011;22600;48.186;11.526;2022-10-28T04:00:50;3.42;;;2.00;;
34639;SDS011;22600;48.186;11.526;2022-10-28T04:03:17;3.30;;;2.20;;
34639;SDS011;22600;48.186;11.526;2022-10-28T04:05:44;3.97;;;2.10;;
34639;SDS011;22600;48.186;11.526;2022-10-28T04:08:12;3.00;;;2.20;;
34639;SDS011;22600;48.186;11.526;2022-10-28T04:10:38;4.55;;;2.10;;
34639;SDS011;22600;48.186;11.526;2022-10-28T04:13:04;4.90;;;2.25;;
34639;SDS011;22600;48.186;11.526;2022-10-28T04:15:31;3.53;;;2.05;;
34639;SDS011;22600;48.186;11.526;2022-10-28T04:17:57;3.58;;;2.22;;
34639;SDS011;22600;48.186;11.526;2022-10-28T04:20:23;3.42;;;1.90;;
34639;SDS011;22600;48.186;11.526;2022-10-28T04:22:50;5.50;;;1.90;;
34639;SDS011;22600;48.186;11.526;2022-10-28T04:25:16;3.75;;;2.00;;
34639;SDS011;22600;48.186;11.526;2022-10-28T04:27:45;3.83;;;1.98;;
34639;SDS011;22600;48.186;11.526;2022-10-28T04:30:11;3.83;;;2.10;;
34639;SDS011;22600;48.186;11.526;2022-10-28T04:32:38;3.78;;;2.10;;
34639;SDS011;22600;48.186;11.526;2022-10-28T04:35:04;5.03;;;1.90;;
34639;SDS011;22600;48.186;11.526;2022-10-28T04:37:30;4.75;;;2.10;;
34639;SDS011;22600;48.186;11.526;2022-10-28T04:39:56;4.38;;;2.00;;
34639;SDS011;22600;48.186;11.526;2022-10-28T04:42:22;4.43;;;2.17;;
34639;SDS011;22600;48.186;11.526;2022-10-28T04:44:48;3.05;;;2.20;;
34639;SDS011;22600;48.186;11.526;2022-10-28T04:47:14;3.33;;;2.00;;
34639;SDS011;22600;48.186;11.526;2022-10-28T04:49:40;3.80;;;1.90;;
34639;SDS011;22600;48.186;11.526;2022-10-28T04:52:05;4.45;;;2.05;;
34639;SDS011;22600;48.186;11.526;2022-10-28T04:54:31;2.47;;;1.80;;
34639;SDS011;22600;48.186;11.526;2022-10-28T04:56:57;3.92;;;1.92;;
34639;SDS011;22600;48.186;11.526;2022-10-28T04:59:22;3.38;;;2.00;;
34639;SDS011;22600;48.186;11.526;2022-10-28T05:01:48;2.88;;;1.90;;
34639;SDS011;22600;48.186;11.526;2022-10-28T05:04:13;2.80;;;2.10;;
34639;SDS011;22600;48.186;11.526;2022-10-28T05:06:39;3.53;;;1.90;;
34639;SDS011;22600;48.186;11.526;2022-10-28T05:09:04;3.90;;;2.22;;
34639;SDS011;22600;48.186;11.526;2022-10-28T05:11:30;3.35;;;1.85;;
34639;SDS011;22600;48.186;11.526;2022-10-28T05:13:56;4.57;;;2.35;;
34639;SDS011;22600;48.186;11.526;2022-10-28T05:16:21;3.83;;;2.15;;
34639;SDS011;22600;48.186;11.526;2022-10-28T05:18:47;4.03;;;1.98;;
34639;SDS011;22600;48.186;11.526;2022-10-28T05:21:12;3.35;;;2.03;;
34639;SDS011;22600;48.186;11.526;2022-10-28T05:23:38;2.22;;;1.60;;
34639;SDS011;22600;48.186;11.526;2022-10-28T05:26:03;2.92;;;1.67;;
34639;SDS011;22600;48.186;11.526;2022-10-28T05:28:29;3.72;;;1.70;;
34639;SDS011;22600;48.186;11.526;2022-10-28T05:30:55;3.47;;;1.85;;
34639;SDS011;22600;48.186;11.526;2022-10-28T05:33:21;3.13;;;2.05;;
34639;SDS011;22600;48.186;11.526;2022-10-28T05:35:46;3.75;;;2.10;;
34639;SDS011;22600;48.186;11.526;2022-10-28T05:38:12;4.85;;;2.40;;
34639;SDS011;22600;48.186;11.526;2022-10-28T05:40:38;5.38;;;2.40;;
34639;SDS011;22600;48.186;11.526;2022-10-28T05:43:03;4.07;;;2.33;;
34639;SDS011;22600;48.186;11.526;2022-10-28T05:45:29;5.13;;;2.25;;
34639;SDS011;22600;48.186;11.526;2022-10-28T05:47:55;3.45;;;2.25;;
34639;SDS011;22600;48.186;11.526;2022-10-28T05:50:20;3.88;;;2.22;;
34639;SDS011;22600;48.186;11.526;2022-10-28T05:52:47;6.22;;;2.28;;
34639;SDS011;22600;48.186;11.526;2022-10-28T05:55:15;3.65;;;2.30;;
34639;SDS011;22600;48.186;11.526;2022-10-28T05:57:43;4.72;;;2.22;;
34639;SDS011;22600;48.186;11.526;2022-10-28T06:00:12;5.25;;;2.40;;
34639;SDS011;22600;48.186;11.526;2022-10-28T06:02:39;3.80;;;2.20;;
34639;SDS011;22600;48.186;11.526;2022-10-28T06:05:06;5.25;;;2.08;;
34639;SDS011;22600;48.186;11.526;2022-10-28T06:07:32;3.65;;;2.00;;
34639;SDS011;22600;48.186;11.526;2022-10-28T06:09:59;3.30;;;1.92;;
34639;SDS011;22600;48.186;11.526;2022-10-28T06:12:25;2.97;;;2.03;;
34639;SDS011;22600;48.186;11.526;2022-10-28T06:14:50;5.82;;;2.28;;
34639;SDS011;22600;48.186;11.526;2022-10-28T06:17:16;3.85;;;2.00;;
34639;SDS011;22600;48.186;11.526;2022-10-28T06:19:41;5.03;;;2.22;;
34639;SDS011;22600;48.186;11.526;2022-10-28T06:22:07;5.18;;;2.40;;
34639;SDS011;22600;48.186;11.526;2022-10-28T06:24:32;4.32;;;2.50;;
34639;SDS011;22600;48.186;11.526;2022-10-28T06:26:58;3.70;;;2.20;;
34639;SDS011;22600;48.186;11.526;2022-10-28T06:29:24;4.38;;;2.30;;
34639;SDS011;22600;48.186;11.526;2022-10-28T06:31:49;4.13;;;2.17;;
34639;SDS011;22600;48.186;11.526;2022-10-28T06:34:15;3.13;;;2.08;;
34639;SDS011;22600;48.186;11.526;2022-10-28T06:36:41;5.32;;;2.03;;
34639;SDS011;22600;48.186;11.526;2022-10-28T06:39:06;5.30;;;2.30;;
34639;SDS011;22600;48.186;11.526;2022-10-28T06:41:32;3.78;;;2.25;;
34639;SDS011;22600;48.186;11.526;2022-10-28T06:43:57;4.05;;;2.10;;
34639;SDS011;22600;48.186;11.526;2022-10-28T06:46:23;4.97;;;2.13;;
34639;SDS011;22600;48.186;11.526;2022-10-28T06:48:49;3.13;;;2.22;;
34639;SDS011;22600;48.186;11.526;2022-10-28T06:51:14;3.72;;;2.35;;
34639;SDS011;22600;48.186;11.526;2022-10-28T06:53:41;5.07;;;2.20;;
34639;SDS011;22600;48.186;11.526;2022-10-28T06:56:07;2.85;;;1.90;;
34639;SDS011;22600;48.186;11.526;2022-10-28T06:58:33;5.13;;;1.92;;
34639;SDS011;22600;48.186;11.526;2022-10-28T07:01:03;3.63;;;2.05;;
34639;SDS011;22600;48.186;11.526;2022-10-28T07:03:29;6.10;;;2.28;;
34639;SDS011;22600;48.186;11.526;2022-10-28T07:05:56;4.97;;;2.50;;
34639;SDS011;22600;48.186;11.526;2022-10-28T07:08:23;4.15;;;2.20;;
34639;SDS011;22600;48.186;11.526;2022-10-28T07:10:58;3.72;;;2.33;;
34639;SDS011;22600;48.186;11.526;2022-10-28T07:13:24;3.58;;;2.35;;
34639;SDS011;22600;48.186;11.526;2022-10-28T07:15:51;4.13;;;2.42;;
34639;SDS011;22600;48.186;11.526;2022-10-28T07:18:20;5.00;;;2.50;;
34639;SDS011;22600;48.186;11.526;2022-10-28T07:20:46;3.47;;;2.20;;
34639;SDS011;22600;48.186;11.526;2022-10-28T07:23:12;2.88;;;2.25;;
34639;SDS011;22600;48.186;11.526;2022-10-28T07:25:38;3.10;;;2.10;;
34639;SDS011;22600;48.186;11.526;2022-10-28T07:28:04;3.65;;;2.50;;
34639;SDS011;22600;48.186;11.526;2022-10-28T07:30:30;5.38;;;2.58;;
34639;SDS011;22600;48.186;11.526;2022-10-28T07:32:55;5.72;;;2.30;;
34639;SDS011;22600;48.186;11.526;2022-10-28T07:35:25;4.60;;;2.20;;
34639;SDS011;22600;48.186;11.526;2022-10-28T07:37:51;3.38;;;2.30;;
34639;SDS011;22600;48.186;11.526;2022-10-28T07:40:18;4.18;;;2.15;;
34639;SDS011;22600;48.186;11.526;2022-10-28T07:42:44;3.25;;;2.20;;
34639;SDS011;22600;48.186;11.526;2022-10-28T07:45:10;4.07;;;2.40;;
34639;SDS011;22600;48.186;11.526;2022-10-28T07:47:35;3.28;;;2.03;;
34639;SDS011;22600;48.186;11.526;2022-10-28T07:50:01;3.30;;;2.25;;
34639;SDS011;22600;48.186;11.526;2022-10-28T07:52:28;3.25;;;2.17;;
34639;SDS011;22600;48.186;11.526;2022-10-28T07:54:53;5.35;;;2.63;;
34639;SDS011;22600;48.186;11.526;2022-10-28T07:57:19;6.28;;;2.20;;
34639;SDS011;22600;48.186;11.526;2022-10-28T07:59:45;5.00;;;2.17;;
34639;SDS011;22600;48.186;11.526;2022-10-28T08:02:14;3.45;;;2.33;;
34639;SDS011;22600;48.186;11.526;2022-10-28T08:04:41;4.82;;;2.40;;
34639;SDS011;22600;48.186;11.526;2022-10-28T08:07:07;4.65;;;2.20;;
34639;SDS011;22600;48.186;11.526;2022-10-28T08:09:33;3.45;;;2.25;;
34639;SDS011;22600;48.186;11.526;2022-10-28T08:11:58;4.35;;;2.30;;
34639;SDS011;22600;48.186;11.526;2022-10-28T08:14:24;2.95;;;2.20;;
34639;SDS011;22600;48.186;11.526;2022-10-28T08:16:49;3.72;;;2.30;;
34639;SDS011;22600;48.186;11.526;2022-10-28T08:19:15;3.40;;;2.20;;
34639;SDS011;22600;48.186;11.526;2022-10-28T08:21:40;3.75;;;2.20;;
34639;SDS011;22600;48.186;11.526;2022-10-28T08:24:06;4.88;;;2.05;;
34639;SDS011;22600;48.186;11.526;2022-10-28T08:26:32;3.83;;;2.10;;
34639;SDS011;22600;48.186;11.526;2022-10-28T08:28:57;3.95;;;2.00;;
34639;SDS011;22600;48.186;11.526;2022-10-28T08:31:25;6.45;;;2.20;;
34639;SDS011;22600;48.186;11.526;2022-10-28T08:33:51;3.00;;;2.15;;
34639;SDS011;22600;48.186;11.526;2022-10-28T08:36:16;6.47;;;2.13;;
34639;SDS011;22600;48.186;11.526;2022-10-28T08:38:42;3.80;;;2.00;;
34639;SDS011;22600;48.186;11.526;2022-10-28T08:49:24;5.75;;;2.50;;
34639;SDS011;22600;48.186;11.526;2022-10-28T08:51:58;4.00;;;2.15;;
34639;SDS011;22600;48.186;11.526;2022-10-28T08:54:39;5.60;;;2.53;;
34639;SDS011;22600;48.186;11.526;2022-10-28T08:57:22;3.10;;;2.05;;
34639;SDS011;22600;48.186;11.526;2022-10-28T08:59:56;5.03;;;2.58;;
34639;SDS011;22600;48.186;11.526;2022-10-28T09:02:24;4.72;;;2.53;;
34639;SDS011;22600;48.186;11.526;2022-10-28T09:04:58;6.43;;;2.60;;
34639;SDS011;22600;48.186;11.526;2022-10-28T09:07:44;5.05;;;2.47;;
34639;SDS011;22600;48.186;11.526;2022-10-28T09:10:12;3.72;;;2.40;;
34639;SDS011;22600;48.186;11.526;2022-10-28T09:17:55;5.30;;;2.25;;
34639;SDS011;22600;48.186;11.526;2022-10-28T09:23:20;4.05;;;2.40;;
34639;SDS011;22600;48.186;11.526;2022-10-28T09:28:43;4.55;;;2.70;;
34639;SDS011;22600;48.186;11.526;2022-10-28T09:31:16;4.38;;;2.50;;
34639;SDS011;22600;48.186;11.526;2022-10-28T09:36:30;3.28;;;2.17;;
34639;SDS011;22600;48.186;11.526;2022-10-28T09:39:00;3.65;;;2.20;;
34639;SDS011;22600;48.186;11.526;2022-10-28T09:41:32;4.00;;;2.35;;
34639;SDS011;22600;48.186;11.526;2022-10-28T09:46:34;3.35;;;2.55;;
34639;SDS011;22600;48.186;11.526;2022-10-28T09:49:02;3.38;;;2.22;;
34639;SDS011;22600;48.186;11.526;2022-10-28T09:51:37;5.03;;;2.38;;
34639;SDS011;22600;48.186;11.526;2022-10-28T09:54:07;3.22;;;2.25;;
34639;SDS011;22600;48.186;11.526;2022-10-28T09:56:34;5.05;;;2.35;;
34639;SDS011;22600;48.186;11.526;2022-10-28T09:59:01;5.20;;;2.35;;
34639;SDS011;22600;48.186;11.526;2022-10-28T10:01:40;3.28;;;2.40;;
34639;SDS011;22600;48.186;11.526;2022-10-28T10:04:20;4.30;;;2.40;;
34639;SDS011;22600;48.186;11.526;2022-10-28T10:06:48;3.35;;;2.10;;
34639;SDS011;22600;48.186;11.526;2022-10-28T10:09:33;3.30;;;2.15;;
34639;SDS011;22600;48.186;11.526;2022-10-28T10:12:02;5.20;;;2.40;;
34639;SDS011;22600;48.186;11.526;2022-10-28T10:14:38;4.32;;;2.53;;
34639;SDS011;22600;48.186;11.526;2022-10-28T10:17:28;4.18;;;2.40;;
34639;SDS011;22600;48.186;11.526;2022-10-28T10:20:09;3.78;;;2.22;;
34639;SDS011;22600;48.186;11.526;2022-10-28T10:22:38;2.97;;;2.40;;
34639;SDS011;22600;48.186;11.526;2022-10-28T10:27:48;3.40;;;2.40;;
34639;SDS011;22600;48.186;11.526;2022-10-28T10:30:17;4.63;;;2.53;;
34639;SDS011;22600;48.186;11.526;2022-10-28T10:32:49;4.75;;;2.55;;
34639;SDS011;22600;48.186;11.526;2022-10-28T10:37:48;5.88;;;2.67;;
34639;SDS011;22600;48.186;11.526;2022-10-28T10:42:43;4.88;;;2.60;;
34639;SDS011;22600;48.186;11.526;2022-10-28T10:47:45;3.55;;;2.33;;
34639;SDS011;22600;48.186;11.526;2022-10-28T10:52:49;4.70;;;2.30;;
34639;SDS011;22600;48.186;11.526;2022-10-28T10:55:20;4.63;;;2.40;;
34639;SDS011;22600;48.186;11.526;2022-10-28T10:57:49;4.60;;;2.30;;
34639;SDS011;22600;48.186;11.526;2022-10-28T11:00:15;3.53;;;2.22;;
34639;SDS011;22600;48.186;11.526;2022-10-28T11:02:44;4.57;;;2.33;;
34639;SDS011;22600;48.186;11.526;2022-10-28T11:05:11;4.45;;;2.15;;
34639;SDS011;22600;48.186;11.526;2022-10-28T11:07:44;3.67;;;2.03;;
34639;SDS011;22600;48.186;11.526;2022-10-28T11:10:28;3.42;;;2.33;;
34639;SDS011;22600;48.186;11.526;2022-10-28T11:12:56;5.63;;;2.60;;
34639;SDS011;22600;48.186;11.526;2022-10-28T11:15:26;3.33;;;2.30;;
34639;SDS011;22600;48.186;11.526;2022-10-28T11:17:54;4.65;;;2.38;;
34639;SDS011;22600;48.186;11.526;2022-10-28T11:23:20;3.95;;;2.33;;
34639;SDS011;22600;48.186;11.526;2022-10-28T11:25:49;4.28;;;2.28;;
34639;SDS011;22600;48.186;11.526;2022-10-28T11:28:23;6.18;;;2.40;;
34639;SDS011;22600;48.186;11.526;2022-10-28T11:42:02;3.08;;;2.03;;
34639;SDS011;22600;48.186;11.526;2022-10-28T11:52:52;4.22;;;1.90;;
34639;SDS011;22600;48.186;11.526;2022-10-28T12:06:16;2.40;;;2.00;;
34639;SDS011;22600;48.186;11.526;2022-10-28T12:09:06;3.03;;;2.00;;
34639;SDS011;22600;48.186;11.526;2022-10-28T12:11:47;3.47;;;2.08;;
34639;SDS011;22600;48.186;11.526;2022-10-28T12:14:34;2.75;;;1.98;;
34639;SDS011;22600;48.186;11.526;2022-10-28T12:22:22;3.85;;;2.03;;
34639;SDS011;22600;48.186;11.526;2022-10-28T12:24:54;4.60;;;2.05;;
34639;SDS011;22600;48.186;11.526;2022-10-28T12:27:26;2.78;;;1.95;;
34639;SDS011;22600;48.186;11.526;2022-10-28T12:30:02;3.72;;;2.08;;
34639;SDS011;22600;48.186;11.526;2022-10-28T12:32:33;3.58;;;2.00;;
34639;SDS011;22600;48.186;11.526;2022-10-28T12:35:03;3.40;;;2.00;;
34639;SDS011;22600;48.186;11.526;2022-10-28T12:40:18;3.67;;;1.92;;
34639;SDS011;22600;48.186;11.526;2022-10-28T12:43:10;19.00;;;5.18;;
34639;SDS011;22600;48.186;11.526;2022-10-28T12:45:40;18.90;;;5.00;;
34639;SDS011;22600;48.186;11.526;2022-10-28T12:48:18;77.78;;;18.38;;
34639;SDS011;22600;48.186;11.526;2022-10-28T12:50:54;17.30;;;4.22;;
34639;SDS011;22600;48.186;11.526;2022-10-28T12:56:11;18.88;;;4.03;;
34639;SDS011;22600;48.186;11.526;2022-10-28T12:59:02;13.65;;;3.10;;
34639;SDS011;22600;48.186;11.526;2022-10-28T13:03:59;10.10;;;3.28;;
34639;SDS011;22600;48.186;11.526;2022-10-28T13:09:28;9.23;;;2.65;;
34639;SDS011;22600;48.186;11.526;2022-10-28T13:14:46;8.80;;;2.80;;
34639;SDS011;22600;48.186;11.526;2022-10-28T13:20:13;6.30;;;2.63;;
34639;SDS011;22600;48.186;11.526;2022-10-28T13:28:29;9.18;;;3.03;;
34639;SDS011;22600;48.186;11.526;2022-10-28T13:30:59;11.40;;;2.92;;
34639;SDS011;22600;48.186;11.526;2022-10-28T13:33:27;6.10;;;2.35;;
34639;SDS011;22600;48.186;11.526;2022-10-28T13:36:05;6.20;;;2.80;;
34639;SDS011;22600;48.186;11.526;2022-10-28T13:38:40;9.27;;;2.90;;
34639;SDS011;22600;48.186;11.526;2022-10-28T13:41:07;5.78;;;1.70;;
34639;SDS011;22600;48.186;11.526;2022-10-28T13:49:22;3.20;;;2.00;;
34639;SDS011;22600;48.186;11.526;2022-10-28T13:57:27;4.18;;;1.60;;
34639;SDS011;22600;48.186;11.526;2022-10-28T13:59:59;6.40;;;1.73;;
34639;SDS011;22600;48.186;11.526;2022-10-28T14:02:59;5.22;;;1.60;;
34639;SDS011;22600;48.186;11.526;2022-10-28T14:08:17;3.67;;;1.60;;
34639;SDS011;22600;48.186;11.526;2022-10-28T14:13:52;3.67;;;1.30;;
34639;SDS011;22600;48.186;11.526;2022-10-28T14:21:47;7.43;;;1.75;;
34639;SDS011;22600;48.186;11.526;2022-10-28T14:24:37;5.05;;;1.92;;
34639;SDS011;22600;48.186;11.526;2022-10-28T14:29:42;6.93;;;2.03;;
34639;SDS011;22600;48.186;11.526;2022-10-28T14:45:29;5.75;;;2.00;;
34639;SDS011;22600;48.186;11.526;2022-10-28T14:50:36;6.53;;;2.00;;
34639;SDS011;22600;48.186;11.526;2022-10-28T14:53:13;7.05;;;2.47;;
34639;SDS011;22600;48.186;11.526;2022-10-28T14:55:48;4.85;;;1.80;;
34639;SDS011;22600;48.186;11.526;2022-10-28T14:58:22;5.78;;;2.10;;
34639;SDS011;22600;48.186;11.526;2022-10-28T15:03:35;7.05;;;2.70;;
34639;SDS011;22600;48.186;11.526;2022-10-28T15:06:18;5.68;;;2.50;;
34639;SDS011;22600;48.186;11.526;2022-10-28T15:09:02;4.57;;;2.42;;
34639;SDS011;22600;48.186;11.526;2022-10-28T15:11:30;5.18;;;2.70;;
34639;SDS011;22600;48.186;11.526;2022-10-28T15:13:59;5.50;;;2.25;;
34639;SDS011;22600;48.186;11.526;2022-10-28T15:16:44;8.88;;;2.90;;
34639;SDS011;22600;48.186;11.526;2022-10-28T15:19:12;5.90;;;2.38;;
34639;SDS011;22600;48.186;11.526;2022-10-28T15:21:42;6.97;;;2.50;;
34639;SDS011;22600;48.186;11.526;2022-10-28T15:24:11;5.82;;;2.60;;
34639;SDS011;22600;48.186;11.526;2022-10-28T15:26:37;6.97;;;2.60;;
34639;SDS011;22600;48.186;11.526;2022-10-28T15:29:03;6.30;;;2.55;;
34639;SDS011;22600;48.186;11.526;2022-10-28T15:31:29;5.35;;;2.38;;
34639;SDS011;22600;48.186;11.526;2022-10-28T15:33:55;7.22;;;2.60;;
34639;SDS011;22600;48.186;11.526;2022-10-28T15:36:21;8.68;;;2.80;;
34639;SDS011;22600;48.186;11.526;2022-10-28T15:38:49;7.78;;;3.25;;
34639;SDS011;22600;48.186;11.526;2022-10-28T15:46:21;10.02;;;3.97;;
34639;SDS011;22600;48.186;11.526;2022-10-28T15:48:51;9.35;;;3.95;;
34639;SDS011;22600;48.186;11.526;2022-10-28T15:51:18;11.57;;;3.77;;
34639;SDS011;22600;48.186;11.526;2022-10-28T15:59:09;10.30;;;3.88;;
34639;SDS011;22600;48.186;11.526;2022-10-28T16:01:45;8.40;;;3.50;;
34639;SDS011;22600;48.186;11.526;2022-10-28T16:06:42;8.30;;;3.97;;
34639;SDS011;22600;48.186;11.526;2022-10-28T16:09:16;7.25;;;3.50;;
34639;SDS011;22600;48.186;11.526;2022-10-28T16:11:45;10.43;;;3.42;;
34639;SDS011;22600;48.186;11.526;2022-10-28T16:17:07;8.25;;;3.70;;
34639;SDS011;22600;48.186;11.526;2022-10-28T16:19:56;9.07;;;4.05;;
34639;SDS011;22600;48.186;11.526;2022-10-28T16:22:27;12.80;;;5.80;;
34639;SDS011;22600;48.186;11.526;2022-10-28T16:24:54;9.60;;;4.80;;
34639;SDS011;22600;48.186;11.526;2022-10-28T16:27:28;20.77;;;8.52;;
34639;SDS011;22600;48.186;11.526;2022-10-28T16:29:55;26.63;;;8.95;;
34639;SDS011;22600;48.186;11.526;2022-10-28T16:32:33;25.60;;;10.20;;
34639;SDS011;22600;48.186;11.526;2022-10-28T16:35:02;32.65;;;12.18;;
34639;SDS011;22600;48.186;11.526;2022-10-28T16:37:33;30.88;;;11.32;;
34639;SDS011;22600;48.186;11.526;2022-10-28T16:39:59;25.10;;;9.95;;
34639;SDS011;22600;48.186;11.526;2022-10-28T16:42:25;33.30;;;11.60;;
34639;SDS011;22600;48.186;11.526;2022-10-28T16:44:51;22.35;;;9.23;;
34639;SDS011;22600;48.186;11.526;2022-10-28T16:47:17;25.33;;;9.38;;
34639;SDS011;22600;48.186;11.526;2022-10-28T16:49:44;24.67;;;8.65;;
34639;SDS011;22600;48.186;11.526;2022-10-28T16:52:16;19.40;;;9.13;;
34639;SDS011;22600;48.186;11.526;2022-10-28T16:55:00;21.45;;;8.85;;
34639;SDS011;22600;48.186;11.526;2022-10-28T16:57:25;23.40;;;9.25;;
34639;SDS011;22600;48.186;11.526;2022-10-28T16:59:51;20.00;;;8.43;;
34639;SDS011;22600;48.186;11.526;2022-10-28T17:02:27;17.05;;;8.60;;
34639;SDS011;22600;48.186;11.526;2022-10-28T17:04:55;16.52;;;8.45;;
34639;SDS011;22600;48.186;11.526;2022-10-28T17:07:21;17.63;;;8.07;;
34639;SDS011;22600;48.186;11.526;2022-10-28T17:09:47;17.95;;;8.30;;
34639;SDS011;22600;48.186;11.526;2022-10-28T17:12:25;17.17;;;8.55;;
34639;SDS011;22600;48.186;11.526;2022-10-28T17:14:51;19.10;;;8.10;;
34639;SDS011;22600;48.186;11.526;2022-10-28T17:17:18;17.98;;;8.73;;
34639;SDS011;22600;48.186;11.526;2022-10-28T17:19:43;17.73;;;7.70;;
34639;SDS011;22600;48.186;11.526;2022-10-28T17:22:10;18.63;;;7.78;;
34639;SDS011;22600;48.186;11.526;2022-10-28T17:24:37;17.75;;;7.55;;
34639;SDS011;22600;48.186;11.526;2022-10-28T17:27:03;18.13;;;7.68;;
34639;SDS011;22600;48.186;11.526;2022-10-28T17:29:29;14.65;;;7.35;;
34639;SDS011;22600;48.186;11.526;2022-10-28T17:31:55;13.85;;;7.28;;
34639;SDS011;22600;48.186;11.526;2022-10-28T17:34:20;15.93;;;7.28;;
34639;SDS011;22600;48.186;11.526;2022-10-28T17:36:46;15.13;;;7.07;;
34639;SDS011;22600;48.186;11.526;2022-10-28T17:39:11;14.63;;;7.57;;
34639;SDS011;22600;48.186;11.526;2022-10-28T17:41:37;15.10;;;7.45;;
34639;SDS011;22600;48.186;11.526;2022-10-28T17:44:03;14.45;;;7.50;;
34639;SDS011;22600;48.186;11.526;2022-10-28T17:46:28;15.65;;;7.47;;
34639;SDS011;22600;48.186;11.526;2022-10-28T17:48:54;14.27;;;7.35;;
34639;SDS011;22600;48.186;11.526;2022-10-28T17:51:20;14.43;;;7.15;;
34639;SDS011;22600;48.186;11.526;2022-10-28T17:53:46;13.75;;;7.20;;
34639;SDS011;22600;48.186;11.526;2022-10-28T17:56:19;13.40;;;6.95;;